createdAt,value
2019-03-23T00:00:42.384Z,1015.24
2019-03-23T00:01:42.386Z,1015.22
2019-03-23T00:02:42.346Z,1015.25
2019-03-23T00:03:42.342Z,1015.25
2019-03-23T00:04:42.403Z,1015.24
2019-03-23T00:05:42.329Z,1015.26
2019-03-23T00:06:42.267Z,1015.19
2019-03-23T00:07:42.425Z,1015.23
2019-03-23T00:08:42.349Z,1015.24
2019-03-23T00:09:42.360Z,1015.21
2019-03-23T00:10:42.318Z,1015.21
2019-03-23T00:11:42.369Z,1015.20
2019-03-23T00:12:42.272Z,1015.21
2019-03-23T00:13:42.363Z,1015.24
2019-03-23T00:14:42.295Z,1015.18
2019-03-23T00:15:42.250Z,1015.22
2019-03-23T00:16:42.362Z,1015.23
2019-03-23T00:17:42.274Z,1015.18
2019-03-23T00:18:42.368Z,1015.17
2019-03-23T00:19:42.231Z,1015.15
2019-03-23T00:20:42.323Z,1015.13
2019-03-23T00:21:42.270Z,1015.17
2019-03-23T00:22:42.259Z,1015.16
2019-03-23T00:23:42.274Z,1015.18
2019-03-23T00:24:42.234Z,1015.14
2019-03-23T00:25:42.235Z,1015.17
2019-03-23T00:26:42.393Z,1015.16
2019-03-23T00:27:42.228Z,1015.18
2019-03-23T00:28:42.320Z,1015.17
2019-03-23T00:29:42.364Z,1015.14
2019-03-23T00:30:42.356Z,1015.15
2019-03-23T00:31:42.336Z,1015.16
2019-03-23T00:32:42.285Z,1015.17
2019-03-23T00:33:42.354Z,1015.17
2019-03-23T00:34:42.363Z,1015.12
2019-03-23T00:35:42.446Z,1015.15
2019-03-23T00:36:42.411Z,1015.14
2019-03-23T00:37:42.460Z,1015.11
2019-03-23T00:38:42.406Z,1015.15
2019-03-23T00:39:42.367Z,1015.11
2019-03-23T00:40:42.257Z,1015.14
2019-03-23T00:41:42.263Z,1015.17
2019-03-23T00:42:42.357Z,1015.13
2019-03-23T00:43:42.371Z,1015.15
2019-03-23T00:44:42.377Z,1015.15
2019-03-23T00:45:42.347Z,1015.17
2019-03-23T00:46:42.386Z,1015.13
2019-03-23T00:47:42.469Z,1015.18
2019-03-23T00:48:42.291Z,1015.17
2019-03-23T00:49:42.378Z,1015.15
2019-03-23T00:50:42.345Z,1015.19
2019-03-23T00:51:42.437Z,1015.18
2019-03-23T00:52:42.296Z,1015.18
2019-03-23T00:53:42.282Z,1015.18
2019-03-23T00:54:42.357Z,1015.19
2019-03-23T00:55:42.415Z,1015.20
2019-03-23T00:56:42.432Z,1015.21
2019-03-23T00:57:42.347Z,1015.22
2019-03-23T00:58:42.364Z,1015.22
2019-03-23T00:59:42.351Z,1015.21
2019-03-23T01:00:42.302Z,1015.17
2019-03-23T01:01:42.354Z,1015.20
2019-03-23T01:02:42.331Z,1015.19
2019-03-23T01:03:42.393Z,1015.23
2019-03-23T01:04:42.282Z,1015.18
2019-03-23T01:05:42.396Z,1015.19
2019-03-23T01:06:51.792Z,1015.16
2019-03-23T01:07:42.280Z,1015.16
2019-03-23T01:08:42.406Z,1015.16
2019-03-23T01:09:42.364Z,1015.17
2019-03-23T01:10:42.431Z,1015.14
2019-03-23T01:11:42.429Z,1015.15
2019-03-23T01:12:42.420Z,1015.14
2019-03-23T01:13:42.352Z,1015.08
2019-03-23T01:14:42.418Z,1015.11
2019-03-23T01:15:42.388Z,1015.12
2019-03-23T01:16:42.448Z,1015.08
2019-03-23T01:17:42.390Z,1015.11
2019-03-23T01:18:42.355Z,1015.08
2019-03-23T01:19:42.455Z,1015.08
2019-03-23T01:20:49.678Z,1015.04
2019-03-23T01:21:42.319Z,1015.01
2019-03-23T01:22:42.323Z,1015.03
2019-03-23T01:23:42.317Z,1014.97
2019-03-23T01:24:42.446Z,1015.02
2019-03-23T01:25:42.392Z,1014.98
2019-03-23T01:26:42.446Z,1014.97
2019-03-23T01:27:42.444Z,1015.01
2019-03-23T01:28:42.327Z,1014.97
2019-03-23T01:29:42.455Z,1015.01
2019-03-23T01:30:42.452Z,1014.98
2019-03-23T01:31:42.381Z,1014.97
2019-03-23T01:32:42.365Z,1015.02
2019-03-23T01:33:42.465Z,1014.98
2019-03-23T01:34:42.324Z,1014.98
2019-03-23T01:35:42.409Z,1014.95
2019-03-23T01:36:42.460Z,1014.94
2019-03-23T01:37:42.329Z,1014.92
2019-03-23T01:38:42.337Z,1014.94
2019-03-23T01:39:42.411Z,1014.95
2019-03-23T01:40:42.404Z,1014.95
2019-03-23T01:41:42.450Z,1014.97
2019-03-23T01:42:42.447Z,1014.91
2019-03-23T01:43:42.386Z,1014.97
2019-03-23T01:44:42.508Z,1014.95
2019-03-23T01:45:42.400Z,1014.96
2019-03-23T01:46:42.465Z,1014.96
2019-03-23T01:47:42.460Z,1014.97
2019-03-23T01:48:42.388Z,1014.98
2019-03-23T01:49:42.460Z,1014.98
2019-03-23T01:50:42.415Z,1014.95
2019-03-23T01:51:42.417Z,1014.96
2019-03-23T01:52:42.450Z,1014.97
2019-03-23T01:53:42.465Z,1014.91
2019-03-23T01:54:42.394Z,1014.94
2019-03-23T01:55:42.412Z,1014.89
2019-03-23T01:56:42.391Z,1014.89
2019-03-23T01:57:42.425Z,1014.91
2019-03-23T01:58:42.455Z,1014.93
2019-03-23T01:59:42.308Z,1014.92
2019-03-23T02:00:42.314Z,1014.90
2019-03-23T02:01:42.344Z,1014.94
2019-03-23T02:02:42.384Z,1014.88
2019-03-23T02:03:42.422Z,1014.88
2019-03-23T02:04:42.334Z,1014.87
2019-03-23T02:05:42.554Z,1014.89
2019-03-23T02:06:42.401Z,1014.85
2019-03-23T02:07:42.441Z,1014.90
2019-03-23T02:08:42.401Z,1014.93
2019-03-23T02:09:42.405Z,1014.92
2019-03-23T02:10:42.469Z,1014.96
2019-03-23T02:11:42.477Z,1014.92
2019-03-23T02:12:42.415Z,1015.00
2019-03-23T02:13:42.421Z,1014.97
2019-03-23T02:14:42.416Z,1014.94
2019-03-23T02:15:42.424Z,1014.92
2019-03-23T02:16:42.416Z,1014.92
2019-03-23T02:17:42.482Z,1014.93
2019-03-23T02:18:42.417Z,1014.94
2019-03-23T02:19:42.473Z,1014.92
2019-03-23T02:20:42.419Z,1014.98
2019-03-23T02:21:42.477Z,1014.95
2019-03-23T02:22:42.493Z,1014.97
2019-03-23T02:23:42.350Z,1014.95
2019-03-23T02:24:42.476Z,1014.92
2019-03-23T02:25:42.479Z,1014.91
2019-03-23T02:26:42.474Z,1014.91
2019-03-23T02:27:42.478Z,1014.93
2019-03-23T02:28:42.489Z,1014.91
2019-03-23T02:29:42.399Z,1014.91
2019-03-23T02:30:42.488Z,1014.90
2019-03-23T02:31:42.533Z,1014.92
2019-03-23T02:32:42.412Z,1014.90
2019-03-23T02:33:42.474Z,1014.91
2019-03-23T02:34:42.405Z,1014.89
2019-03-23T02:35:42.474Z,1014.91
2019-03-23T02:36:42.477Z,1014.89
2019-03-23T02:37:42.478Z,1014.93
2019-03-23T02:38:42.405Z,1014.90
2019-03-23T02:39:42.488Z,1014.90
2019-03-23T02:40:42.387Z,1014.94
2019-03-23T02:41:42.477Z,1014.92
2019-03-23T02:42:42.506Z,1014.93
2019-03-23T02:43:42.495Z,1014.94
2019-03-23T02:44:42.519Z,1014.91
2019-03-23T02:45:42.440Z,1014.94
2019-03-23T02:46:42.501Z,1014.89
2019-03-23T02:47:42.448Z,1014.92
2019-03-23T02:48:42.448Z,1014.94
2019-03-23T02:49:42.496Z,1014.93
2019-03-23T02:50:42.502Z,1014.95
2019-03-23T02:51:42.444Z,1014.93
2019-03-23T02:52:42.513Z,1014.92
2019-03-23T02:53:42.503Z,1014.97
2019-03-23T02:54:42.503Z,1015.01
2019-03-23T02:55:42.450Z,1015.03
2019-03-23T02:56:42.511Z,1015.04
2019-03-23T02:57:42.501Z,1015.07
2019-03-23T02:58:42.430Z,1015.04
2019-03-23T02:59:42.486Z,1015.03
2019-03-23T03:00:42.439Z,1015.04
2019-03-23T03:01:42.503Z,1015.06
2019-03-23T03:02:42.391Z,1015.07
2019-03-23T03:03:42.433Z,1015.04
2019-03-23T03:04:42.424Z,1015.01
2019-03-23T03:05:42.551Z,1015.03
2019-03-23T03:06:42.427Z,1015.04
2019-03-23T03:07:43.739Z,1015.03
2019-03-23T03:08:42.494Z,1015.02
2019-03-23T03:09:42.387Z,1015.09
2019-03-23T03:10:42.404Z,1015.00
2019-03-23T03:11:42.453Z,1015.06
2019-03-23T03:12:42.449Z,1015.05
2019-03-23T03:13:42.442Z,1015.03
2019-03-23T03:14:42.381Z,1015.04
2019-03-23T03:15:42.362Z,1015.08
2019-03-23T03:16:42.445Z,1015.07
2019-03-23T03:17:42.447Z,1015.08
2019-03-23T03:18:42.358Z,1015.11
2019-03-23T03:19:42.459Z,1015.13
2019-03-23T03:20:42.523Z,1015.13
2019-03-23T03:21:42.537Z,1015.18
2019-03-23T03:22:42.465Z,1015.15
2019-03-23T03:23:42.471Z,1015.18
2019-03-23T03:24:42.529Z,1015.21
2019-03-23T03:25:42.528Z,1015.20
2019-03-23T03:26:42.534Z,1015.23
2019-03-23T03:27:42.466Z,1015.25
2019-03-23T03:28:42.473Z,1015.24
2019-03-23T03:29:42.595Z,1015.26
2019-03-23T03:30:42.464Z,1015.22
2019-03-23T03:31:42.454Z,1015.27
2019-03-23T03:32:42.491Z,1015.24
2019-03-23T03:33:42.578Z,1015.22
2019-03-23T03:34:42.485Z,1015.23
2019-03-23T03:35:42.532Z,1015.27
2019-03-23T03:36:42.546Z,1015.29
2019-03-23T03:37:55.701Z,1015.30
2019-03-23T03:38:42.465Z,1015.30
2019-03-23T03:39:42.479Z,1015.33
2019-03-23T03:40:42.555Z,1015.36
2019-03-23T03:41:42.540Z,1015.36
2019-03-23T03:42:42.546Z,1015.39
2019-03-23T03:43:42.538Z,1015.41
2019-03-23T03:44:42.496Z,1015.46
2019-03-23T03:45:42.507Z,1015.46
2019-03-23T03:46:42.481Z,1015.45
2019-03-23T03:47:42.559Z,1015.50
2019-03-23T03:48:42.490Z,1015.51
2019-03-23T03:49:42.461Z,1015.52
2019-03-23T03:50:42.465Z,1015.50
2019-03-23T03:51:42.472Z,1015.53
2019-03-23T03:52:42.544Z,1015.47
2019-03-23T03:53:42.464Z,1015.46
2019-03-23T03:54:42.526Z,1015.44
2019-03-23T03:55:42.476Z,1015.43
2019-03-23T03:56:42.543Z,1015.46
2019-03-23T03:57:42.467Z,1015.43
2019-03-23T03:58:42.532Z,1015.41
2019-03-23T03:59:42.421Z,1015.41
2019-03-23T04:00:42.529Z,1015.40
2019-03-23T04:01:42.528Z,1015.40
2019-03-23T04:02:42.439Z,1015.32
2019-03-23T04:03:42.421Z,1015.34
2019-03-23T04:04:42.461Z,1015.27
2019-03-23T04:05:42.420Z,1015.28
2019-03-23T04:06:42.457Z,1015.26
2019-03-23T04:07:42.447Z,1015.27
2019-03-23T04:08:42.523Z,1015.29
2019-03-23T04:09:42.539Z,1015.30
2019-03-23T04:10:42.627Z,1015.21
2019-03-23T04:11:42.419Z,1015.24
2019-03-23T04:12:42.438Z,1015.26
2019-03-23T04:13:42.471Z,1015.30
2019-03-23T04:14:42.446Z,1015.33
2019-03-23T04:15:42.424Z,1015.35
2019-03-23T04:16:42.530Z,1015.35
2019-03-23T04:17:42.556Z,1015.36
2019-03-23T04:18:42.470Z,1015.28
2019-03-23T04:19:42.582Z,1015.27
2019-03-23T04:20:42.450Z,1015.33
2019-03-23T04:21:42.578Z,1015.28
2019-03-23T04:22:42.593Z,1015.30
2019-03-23T04:23:42.582Z,1015.35
2019-03-23T04:24:42.506Z,1015.32
2019-03-23T04:25:42.460Z,1015.32
2019-03-23T04:26:42.590Z,1015.34
2019-03-23T04:27:42.571Z,1015.32
2019-03-23T04:28:42.612Z,1015.33
2019-03-23T04:29:42.553Z,1015.37
2019-03-23T04:30:42.488Z,1015.34
2019-03-23T04:31:42.491Z,1015.35
2019-03-23T04:32:42.555Z,1015.37
2019-03-23T04:33:42.509Z,1015.36
2019-03-23T04:34:42.563Z,1015.40
2019-03-23T04:35:42.562Z,1015.33
2019-03-23T04:36:42.561Z,1015.38
2019-03-23T04:37:42.565Z,1015.32
2019-03-23T04:38:42.492Z,1015.36
2019-03-23T04:39:42.504Z,1015.34
2019-03-23T04:40:42.560Z,1015.31
2019-03-23T04:41:42.500Z,1015.30
2019-03-23T04:42:42.569Z,1015.32
2019-03-23T04:43:42.492Z,1015.36
2019-03-23T04:44:42.573Z,1015.41
2019-03-23T04:45:42.548Z,1015.46
2019-03-23T04:46:44.033Z,1015.52
2019-03-23T04:47:42.500Z,1015.53
2019-03-23T04:48:42.565Z,1015.51
2019-03-23T04:49:42.564Z,1015.52
2019-03-23T04:50:42.596Z,1015.56
2019-03-23T04:51:42.571Z,1015.56
2019-03-23T04:52:42.568Z,1015.53
2019-03-23T04:53:42.503Z,1015.59
2019-03-23T04:54:42.570Z,1015.59
2019-03-23T04:55:42.509Z,1015.56
2019-03-23T04:56:42.514Z,1015.62
2019-03-23T04:57:42.576Z,1015.57
2019-03-23T04:58:42.509Z,1015.56
2019-03-23T04:59:42.495Z,1015.57
2019-03-23T05:00:42.476Z,1015.59
2019-03-23T05:01:42.503Z,1015.57
2019-03-23T05:02:42.518Z,1015.55
2019-03-23T05:03:42.522Z,1015.54
2019-03-23T05:04:42.565Z,1015.55
2019-03-23T05:05:42.572Z,1015.63
2019-03-23T05:06:42.718Z,1015.63
2019-03-23T05:07:42.481Z,1015.63
2019-03-23T05:08:42.523Z,1015.66
2019-03-23T05:09:42.593Z,1015.65
2019-03-23T05:10:42.596Z,1015.68
2019-03-23T05:11:42.601Z,1015.70
2019-03-23T05:12:42.529Z,1015.71
2019-03-23T05:13:42.598Z,1015.73
2019-03-23T05:14:42.594Z,1015.77
2019-03-23T05:15:42.553Z,1015.75
2019-03-23T05:16:42.543Z,1015.73
2019-03-23T05:17:42.610Z,1015.75
2019-03-23T05:18:42.524Z,1015.76
2019-03-23T05:19:42.527Z,1015.77
2019-03-23T05:20:42.549Z,1015.78
2019-03-23T05:21:42.547Z,1015.82
2019-03-23T05:22:42.613Z,1015.84
2019-03-23T05:23:42.602Z,1015.79
2019-03-23T05:24:42.600Z,1015.79
2019-03-23T05:25:42.549Z,1015.80
2019-03-23T05:26:42.545Z,1015.84
2019-03-23T05:27:42.546Z,1015.83
2019-03-23T05:28:42.612Z,1015.88
2019-03-23T05:29:42.646Z,1015.88
2019-03-23T05:30:42.560Z,1015.89
2019-03-23T05:31:42.532Z,1015.89
2019-03-23T05:32:42.537Z,1015.91
2019-03-23T05:33:42.668Z,1015.86
2019-03-23T05:34:42.538Z,1015.84
2019-03-23T05:35:42.539Z,1015.84
2019-03-23T05:36:42.617Z,1015.89
2019-03-23T05:37:42.610Z,1015.91
2019-03-23T05:38:44.567Z,1015.86
2019-03-23T05:39:42.617Z,1015.85
2019-03-23T05:40:42.600Z,1015.93
2019-03-23T05:41:42.545Z,1015.94
2019-03-23T05:42:42.607Z,1015.93
2019-03-23T05:43:42.601Z,1015.95
2019-03-23T05:44:42.541Z,1016.00
2019-03-23T05:45:42.605Z,1016.03
2019-03-23T05:46:42.532Z,1016.05
2019-03-23T05:47:42.607Z,1016.07
2019-03-23T05:48:42.533Z,1016.05
2019-03-23T05:49:42.606Z,1016.05
2019-03-23T05:50:42.623Z,1016.03
2019-03-23T05:51:42.573Z,1016.10
2019-03-23T05:52:42.548Z,1016.09
2019-03-23T05:53:42.549Z,1016.14
2019-03-23T05:54:42.625Z,1016.14
2019-03-23T05:55:42.556Z,1016.15
2019-03-23T05:56:42.626Z,1016.10
2019-03-23T05:57:42.621Z,1016.11
2019-03-23T05:58:42.679Z,1016.09
2019-03-23T05:59:42.553Z,1016.08
2019-03-23T06:00:42.597Z,1016.09
2019-03-23T06:01:42.541Z,1016.14
2019-03-23T06:02:42.616Z,1016.12
2019-03-23T06:03:42.545Z,1016.12
2019-03-23T06:04:42.548Z,1016.19
2019-03-23T06:05:42.620Z,1016.17
2019-03-23T06:06:42.555Z,1016.24
2019-03-23T06:07:42.625Z,1016.22
2019-03-23T06:08:42.553Z,1016.23
2019-03-23T06:09:42.587Z,1016.23
2019-03-23T06:10:42.645Z,1016.30
2019-03-23T06:11:42.580Z,1016.33
2019-03-23T06:12:42.566Z,1016.32
2019-03-23T06:13:42.636Z,1016.32
2019-03-23T06:14:42.585Z,1016.37
2019-03-23T06:15:42.567Z,1016.32
2019-03-23T06:16:42.582Z,1016.38
2019-03-23T06:17:42.577Z,1016.43
2019-03-23T06:18:42.639Z,1016.41
2019-03-23T06:19:42.568Z,1016.44
2019-03-23T06:20:42.629Z,1016.46
2019-03-23T06:21:42.807Z,1016.44
2019-03-23T06:22:42.568Z,1016.44
2019-03-23T06:23:42.632Z,1016.52
2019-03-23T06:24:42.560Z,1016.48
2019-03-23T06:25:42.564Z,1016.47
2019-03-23T06:26:42.636Z,1016.45
2019-03-23T06:27:42.581Z,1016.47
2019-03-23T06:28:42.530Z,1016.46
2019-03-23T06:29:42.569Z,1016.53
2019-03-23T06:30:42.640Z,1016.52
2019-03-23T06:31:42.561Z,1016.49
2019-03-23T06:32:42.564Z,1016.50
2019-03-23T06:33:42.644Z,1016.46
2019-03-23T06:34:42.567Z,1016.43
2019-03-23T06:35:42.540Z,1016.43
2019-03-23T06:36:42.644Z,1016.49
2019-03-23T06:37:42.570Z,1016.52
2019-03-23T06:38:42.644Z,1016.55
2019-03-23T06:39:42.573Z,1016.53
2019-03-23T06:40:42.656Z,1016.58
2019-03-23T06:41:42.655Z,1016.60
2019-03-23T06:42:42.584Z,1016.56
2019-03-23T06:43:42.661Z,1016.59
2019-03-23T06:44:42.668Z,1016.62
2019-03-23T06:45:42.585Z,1016.60
2019-03-23T06:46:42.660Z,1016.65
2019-03-23T06:47:42.598Z,1016.64
2019-03-23T06:48:42.592Z,1016.61
2019-03-23T06:49:42.666Z,1016.65
2019-03-23T06:50:42.560Z,1016.64
2019-03-23T06:51:42.636Z,1016.60
2019-03-23T06:52:42.576Z,1016.60
2019-03-23T06:53:42.555Z,1016.61
2019-03-23T06:54:42.608Z,1016.57
2019-03-23T06:55:42.583Z,1016.51
2019-03-23T06:56:42.653Z,1016.49
2019-03-23T06:57:42.654Z,1016.54
2019-03-23T06:58:42.655Z,1016.57
2019-03-23T06:59:42.586Z,1016.60
2019-03-23T07:00:42.545Z,1016.54
2019-03-23T07:01:42.645Z,1016.60
2019-03-23T07:02:42.629Z,1016.62
2019-03-23T07:03:42.660Z,1016.57
2019-03-23T07:04:42.630Z,1016.60
2019-03-23T07:05:42.625Z,1016.59
2019-03-23T07:06:42.611Z,1016.61
2019-03-23T07:07:42.603Z,1016.60
2019-03-23T07:08:42.615Z,1016.59
2019-03-23T07:09:42.611Z,1016.60
2019-03-23T07:10:42.675Z,1016.61
2019-03-23T07:11:42.689Z,1016.57
2019-03-23T07:12:42.677Z,1016.60
2019-03-23T07:13:42.642Z,1016.67
2019-03-23T07:14:42.627Z,1016.68
2019-03-23T07:15:42.615Z,1016.66
2019-03-23T07:16:42.687Z,1016.64
2019-03-23T07:17:42.682Z,1016.65
2019-03-23T07:18:42.681Z,1016.65
2019-03-23T07:19:42.610Z,1016.65
2019-03-23T07:20:42.643Z,1016.67
2019-03-23T07:21:42.692Z,1016.65
2019-03-23T07:22:42.718Z,1016.64
2019-03-23T07:23:42.614Z,1016.64
2019-03-23T07:24:42.684Z,1016.63
2019-03-23T07:25:42.689Z,1016.61
2019-03-23T07:26:42.694Z,1016.66
2019-03-23T07:27:42.583Z,1016.63
2019-03-23T07:28:42.690Z,1016.58
2019-03-23T07:29:42.689Z,1016.55
2019-03-23T07:30:42.631Z,1016.53
2019-03-23T07:31:42.689Z,1016.53
2019-03-23T07:32:42.653Z,1016.59
2019-03-23T07:33:42.694Z,1016.65
2019-03-23T07:34:42.621Z,1016.62
2019-03-23T07:35:42.624Z,1016.63
2019-03-23T07:36:42.640Z,1016.65
2019-03-23T07:37:42.697Z,1016.64
2019-03-23T07:38:42.701Z,1016.66
2019-03-23T07:39:42.652Z,1016.72
2019-03-23T07:40:42.699Z,1016.71
2019-03-23T07:41:42.627Z,1016.75
2019-03-23T07:42:42.709Z,1016.71
2019-03-23T07:43:42.688Z,1016.67
2019-03-23T07:44:42.673Z,1016.66
2019-03-23T07:45:42.634Z,1016.70
2019-03-23T07:46:42.701Z,1016.72
2019-03-23T07:47:42.641Z,1016.76
2019-03-23T07:48:42.700Z,1016.79
2019-03-23T07:49:42.684Z,1016.81
2019-03-23T07:50:42.675Z,1016.81
2019-03-23T07:51:42.671Z,1016.79
2019-03-23T07:52:42.583Z,1016.80
2019-03-23T07:53:42.720Z,1016.79
2019-03-23T07:54:42.685Z,1016.83
2019-03-23T07:55:42.565Z,1016.78
2019-03-23T07:56:42.625Z,1016.73
2019-03-23T07:57:42.655Z,1016.80
2019-03-23T07:58:42.660Z,1016.83
2019-03-23T07:59:42.595Z,1016.83
2019-03-23T08:00:42.733Z,1016.87
2019-03-23T08:01:42.714Z,1016.90
2019-03-23T08:02:42.668Z,1016.89
2019-03-23T08:03:42.658Z,1016.96
2019-03-23T08:04:42.653Z,1017.01
2019-03-23T08:05:42.615Z,1016.97
2019-03-23T08:06:42.717Z,1016.98
2019-03-23T08:07:42.644Z,1016.98
2019-03-23T08:08:42.719Z,1017.02
2019-03-23T08:09:42.654Z,1017.02
2019-03-23T08:10:42.721Z,1017.04
2019-03-23T08:11:42.648Z,1017.06
2019-03-23T08:12:42.745Z,1017.07
2019-03-23T08:13:42.648Z,1017.10
2019-03-23T08:14:42.651Z,1017.08
2019-03-23T08:15:42.667Z,1017.13
2019-03-23T08:16:42.752Z,1017.18
2019-03-23T08:17:42.726Z,1017.24
2019-03-23T08:18:42.723Z,1017.18
2019-03-23T08:19:42.656Z,1017.20
2019-03-23T08:20:42.728Z,1017.26
2019-03-23T08:21:42.731Z,1017.31
2019-03-23T08:22:42.657Z,1017.32
2019-03-23T08:23:42.728Z,1017.27
2019-03-23T08:24:42.657Z,1017.35
2019-03-23T08:25:42.729Z,1017.31
2019-03-23T08:26:42.737Z,1017.25
2019-03-23T08:27:42.673Z,1017.29
2019-03-23T08:28:42.672Z,1017.25
2019-03-23T08:29:42.628Z,1017.33
2019-03-23T08:30:42.775Z,1017.34
2019-03-23T08:31:42.733Z,1017.36
2019-03-23T08:32:42.666Z,1017.41
2019-03-23T08:33:42.740Z,1017.30
2019-03-23T08:34:42.736Z,1017.32
2019-03-23T08:35:42.738Z,1017.34
2019-03-23T08:36:42.735Z,1017.28
2019-03-23T08:37:42.684Z,1017.24
2019-03-23T08:38:42.667Z,1017.25
2019-03-23T08:39:48.417Z,1017.32
2019-03-23T08:40:42.671Z,1017.28
2019-03-23T08:41:42.692Z,1017.31
2019-03-23T08:42:42.678Z,1017.36
2019-03-23T08:43:42.749Z,1017.31
2019-03-23T08:44:42.639Z,1017.36
2019-03-23T08:45:42.745Z,1017.42
2019-03-23T08:46:42.821Z,1017.39
2019-03-23T08:47:42.762Z,1017.43
2019-03-23T08:48:42.767Z,1017.41
2019-03-23T08:49:42.674Z,1017.41
2019-03-23T08:50:42.746Z,1017.41
2019-03-23T08:51:42.754Z,1017.36
2019-03-23T08:52:42.746Z,1017.39
2019-03-23T08:53:42.697Z,1017.48
2019-03-23T08:54:42.686Z,1017.45
2019-03-23T08:55:42.753Z,1017.44
2019-03-23T08:56:42.751Z,1017.43
2019-03-23T08:57:42.683Z,1017.45
2019-03-23T08:58:42.772Z,1017.45
2019-03-23T08:59:42.714Z,1017.54
2019-03-23T09:00:42.752Z,1017.42
2019-03-23T09:01:42.700Z,1017.46
2019-03-23T09:02:42.743Z,1017.52
2019-03-23T09:03:51.980Z,1017.49
2019-03-23T09:04:42.702Z,1017.53
2019-03-23T09:05:42.712Z,1017.52
2019-03-23T09:06:42.694Z,1017.50
2019-03-23T09:07:42.753Z,1017.50
2019-03-23T09:08:42.765Z,1017.57
2019-03-23T09:09:42.778Z,1017.56
2019-03-23T09:10:42.787Z,1017.61
2019-03-23T09:11:42.722Z,1017.58
2019-03-23T09:12:42.768Z,1017.55
2019-03-23T09:13:42.767Z,1017.52
2019-03-23T09:14:42.715Z,1017.52
2019-03-23T09:15:42.727Z,1017.58
2019-03-23T09:16:42.700Z,1017.58
2019-03-23T09:17:42.711Z,1017.55
2019-03-23T09:18:42.708Z,1017.51
2019-03-23T09:19:42.730Z,1017.57
2019-03-23T09:20:42.775Z,1017.55
2019-03-23T09:21:42.781Z,1017.62
2019-03-23T09:22:42.772Z,1017.65
2019-03-23T09:23:42.773Z,1017.65
2019-03-23T09:24:42.775Z,1017.69
2019-03-23T09:25:42.719Z,1017.70
2019-03-23T09:26:42.776Z,1017.65
2019-03-23T09:27:42.710Z,1017.67
2019-03-23T09:28:42.703Z,1017.67
2019-03-23T09:29:42.703Z,1017.70
2019-03-23T09:30:42.766Z,1017.69
2019-03-23T09:31:42.766Z,1017.74
2019-03-23T09:32:42.701Z,1017.74
2019-03-23T09:33:42.698Z,1017.74
2019-03-23T09:34:42.768Z,1017.78
2019-03-23T09:35:42.700Z,1017.82
2019-03-23T09:36:42.701Z,1017.81
2019-03-23T09:37:42.708Z,1017.84
2019-03-23T09:38:42.705Z,1017.82
2019-03-23T09:39:42.779Z,1017.87
2019-03-23T09:40:42.800Z,1017.86
2019-03-23T09:41:42.791Z,1017.92
2019-03-23T09:42:42.785Z,1017.93
2019-03-23T09:43:42.792Z,1017.92
2019-03-23T09:44:42.823Z,1017.95
2019-03-23T09:45:42.717Z,1017.92
2019-03-23T09:46:42.737Z,1017.96
2019-03-23T09:47:42.720Z,1017.96
2019-03-23T09:48:42.752Z,1018.01
2019-03-23T09:49:42.718Z,1017.99
2019-03-23T09:50:42.712Z,1018.03
2019-03-23T09:51:42.781Z,1018.04
2019-03-23T09:52:42.785Z,1018.07
2019-03-23T09:53:42.779Z,1018.05
2019-03-23T09:54:42.717Z,1018.09
2019-03-23T09:55:42.783Z,1018.18
2019-03-23T09:56:42.714Z,1018.13
2019-03-23T09:57:42.784Z,1018.11
2019-03-23T09:58:42.713Z,1018.16
2019-03-23T09:59:42.727Z,1018.17
2019-03-23T10:00:42.721Z,1018.12
2019-03-23T10:01:42.781Z,1018.16
2019-03-23T10:02:42.718Z,1018.15
2019-03-23T10:03:42.994Z,1018.18
2019-03-23T10:04:42.720Z,1018.17
2019-03-23T10:05:42.791Z,1018.20
2019-03-23T10:06:42.725Z,1018.17
2019-03-23T10:07:42.792Z,1018.18
2019-03-23T10:08:42.721Z,1018.21
2019-03-23T10:09:42.792Z,1018.29
2019-03-23T10:10:42.732Z,1018.29
2019-03-23T10:11:42.682Z,1018.31
2019-03-23T10:12:42.749Z,1018.32
2019-03-23T10:13:42.656Z,1018.33
2019-03-23T10:14:42.656Z,1018.27
2019-03-23T10:15:42.691Z,1018.33
2019-03-23T10:16:42.647Z,1018.27
2019-03-23T10:17:42.807Z,1018.26
2019-03-23T10:18:42.756Z,1018.27
2019-03-23T10:19:42.673Z,1018.24
2019-03-23T10:20:42.689Z,1018.23
2019-03-23T10:21:42.767Z,1018.21
2019-03-23T10:22:42.763Z,1018.19
2019-03-23T10:23:42.756Z,1018.22
2019-03-23T10:24:42.737Z,1018.21
2019-03-23T10:25:42.731Z,1018.23
2019-03-23T10:26:42.762Z,1018.30
2019-03-23T10:27:42.701Z,1018.28
2019-03-23T10:28:42.765Z,1018.29
2019-03-23T10:29:42.715Z,1018.28
2019-03-23T10:30:42.739Z,1018.29
2019-03-23T10:31:42.808Z,1018.32
2019-03-23T10:32:42.809Z,1018.30
2019-03-23T10:33:42.814Z,1018.35
2019-03-23T10:34:42.872Z,1018.37
2019-03-23T10:35:42.754Z,1018.40
2019-03-23T10:36:42.812Z,1018.37
2019-03-23T10:37:42.760Z,1018.38
2019-03-23T10:38:42.814Z,1018.35
2019-03-23T10:39:42.749Z,1018.40
2019-03-23T10:40:43.040Z,1018.36
2019-03-23T10:41:42.830Z,1018.38
2019-03-23T10:42:43.475Z,1018.43
2019-03-23T10:43:42.755Z,1018.41
2019-03-23T10:44:42.827Z,1018.36
2019-03-23T10:45:44.402Z,1018.40
2019-03-23T10:46:42.839Z,1018.39
2019-03-23T10:47:42.980Z,1018.36
2019-03-23T10:48:42.730Z,1018.40
2019-03-23T10:49:42.829Z,1018.38
2019-03-23T10:50:42.828Z,1018.39
2019-03-23T10:51:42.829Z,1018.38
2019-03-23T10:52:42.765Z,1018.38
2019-03-23T10:53:42.826Z,1018.43
2019-03-23T10:54:42.760Z,1018.44
2019-03-23T10:55:42.836Z,1018.41
2019-03-23T10:56:42.758Z,1018.48
2019-03-23T10:57:42.832Z,1018.44
2019-03-23T10:58:42.753Z,1018.42
2019-03-23T10:59:42.832Z,1018.41
2019-03-23T11:00:42.756Z,1018.38
2019-03-23T11:01:42.786Z,1018.39
2019-03-23T11:02:42.789Z,1018.39
2019-03-23T11:03:42.785Z,1018.42
2019-03-23T11:04:42.831Z,1018.42
2019-03-23T11:05:42.773Z,1018.40
2019-03-23T11:06:42.844Z,1018.41
2019-03-23T11:07:42.860Z,1018.48
2019-03-23T11:08:42.858Z,1018.48
2019-03-23T11:09:42.850Z,1018.50
2019-03-23T11:10:42.775Z,1018.47
2019-03-23T11:11:42.856Z,1018.47
2019-03-23T11:12:42.777Z,1018.50
2019-03-23T11:13:42.858Z,1018.53
2019-03-23T11:14:42.849Z,1018.52
2019-03-23T11:15:42.800Z,1018.48
2019-03-23T11:16:42.779Z,1018.47
2019-03-23T11:17:42.784Z,1018.50
2019-03-23T11:18:42.857Z,1018.54
2019-03-23T11:19:42.867Z,1018.54
2019-03-23T11:20:42.856Z,1018.56
2019-03-23T11:21:42.799Z,1018.57
2019-03-23T11:22:42.856Z,1018.63
2019-03-23T11:23:42.850Z,1018.55
2019-03-23T11:24:42.864Z,1018.60
2019-03-23T11:25:42.818Z,1018.60
2019-03-23T11:26:42.785Z,1018.65
2019-03-23T11:27:42.856Z,1018.64
2019-03-23T11:28:42.858Z,1018.66
2019-03-23T11:29:42.867Z,1018.66
2019-03-23T11:30:42.885Z,1018.70
2019-03-23T11:31:42.851Z,1018.66
2019-03-23T11:32:42.779Z,1018.70
2019-03-23T11:33:42.853Z,1018.71
2019-03-23T11:34:42.853Z,1018.73
2019-03-23T11:35:42.791Z,1018.74
2019-03-23T11:36:42.854Z,1018.77
2019-03-23T11:37:43.065Z,1018.73
2019-03-23T11:38:42.789Z,1018.73
2019-03-23T11:39:42.859Z,1018.81
2019-03-23T11:40:52.708Z,1018.82
2019-03-23T11:41:42.802Z,1018.80
2019-03-23T11:42:49.791Z,1018.78
2019-03-23T11:43:42.840Z,1018.79
2019-03-23T11:44:42.854Z,1018.82
2019-03-23T11:45:42.764Z,1018.85
2019-03-23T11:46:42.753Z,1018.88
2019-03-23T11:47:42.854Z,1018.86
2019-03-23T11:48:42.843Z,1018.89
2019-03-23T11:49:42.805Z,1018.84
2019-03-23T11:50:42.811Z,1018.91
2019-03-23T11:51:42.884Z,1018.89
2019-03-23T11:52:42.888Z,1018.94
2019-03-23T11:53:42.876Z,1018.93
2019-03-23T11:54:42.930Z,1018.95
2019-03-23T11:55:42.878Z,1018.96
2019-03-23T11:56:42.884Z,1019.00
2019-03-23T11:57:42.891Z,1018.99
2019-03-23T11:58:42.811Z,1018.99
2019-03-23T11:59:42.771Z,1019.01
2019-03-23T12:00:42.884Z,1019.02
2019-03-23T12:01:51.488Z,1018.99
2019-03-23T12:02:42.809Z,1019.00
2019-03-23T12:03:42.876Z,1018.98
2019-03-23T12:04:42.804Z,1018.99
2019-03-23T12:05:42.874Z,1018.98